createdAt,value
2022-09-21T00:02:33.608Z,2.03
2022-09-21T00:05:21.059Z,2.07
2022-09-21T00:08:08.843Z,2.40
2022-09-21T00:10:56.430Z,2.43
2022-09-21T00:13:44.634Z,2.00
2022-09-21T00:16:32.377Z,1.80
2022-09-21T00:19:20.321Z,2.30
2022-09-21T00:22:08.166Z,1.90
2022-09-21T00:24:56.554Z,2.10
2022-09-21T00:27:44.404Z,1.90
2022-09-21T00:30:32.251Z,2.00
2022-09-21T00:33:19.687Z,1.67
2022-09-21T00:36:08.464Z,2.20
2022-09-21T00:39:01.621Z,2.17
2022-09-21T00:41:53.971Z,1.87
2022-09-21T00:44:41.823Z,2.43
2022-09-21T00:47:39.957Z,2.00
2022-09-21T00:50:27.924Z,2.27
2022-09-21T00:53:16.118Z,2.30
2022-09-21T00:56:04.455Z,2.00
2022-09-21T00:58:53.314Z,2.27
2022-09-21T01:01:43.558Z,1.97
2022-09-21T01:04:32.111Z,2.20
2022-09-21T01:07:21.837Z,2.07
2022-09-21T01:10:12.888Z,2.20
2022-09-21T01:13:05.723Z,2.17
2022-09-21T01:16:03.213Z,2.17
2022-09-21T01:18:53.775Z,2.07
2022-09-21T01:21:51.219Z,2.17
2022-09-21T01:24:44.704Z,2.10
2022-09-21T01:27:44.796Z,1.70
2022-09-21T01:30:34.786Z,2.13
2022-09-21T01:33:27.976Z,2.20
2022-09-21T01:36:17.738Z,2.03
2022-09-21T01:39:10.188Z,1.80
2022-09-21T01:41:58.704Z,2.43
2022-09-21T01:44:47.627Z,2.37
2022-09-21T01:47:38.431Z,1.77
2022-09-21T01:50:27.078Z,2.03
2022-09-21T01:53:18.355Z,1.60
2022-09-21T01:56:08.653Z,1.80
2022-09-21T01:59:02.115Z,2.07
2022-09-21T02:01:53.248Z,2.13
2022-09-21T02:04:41.184Z,1.80
2022-09-21T02:07:29.286Z,1.60
2022-09-21T02:10:36.844Z,1.97
2022-09-21T02:13:28.094Z,1.77
2022-09-21T02:16:34.142Z,1.70
2022-09-21T02:19:24.553Z,1.77
2022-09-21T02:22:30.988Z,1.60
2022-09-21T02:25:23.819Z,1.93
2022-09-21T02:28:17.539Z,1.90
2022-09-21T02:31:18.567Z,1.63
2022-09-21T02:34:16.014Z,1.60
2022-09-21T02:37:08.831Z,1.57
2022-09-21T02:40:00.798Z,1.70
2022-09-21T02:42:49.543Z,1.80
2022-09-21T02:45:46.118Z,1.70
2022-09-21T02:48:36.296Z,1.60
2022-09-21T02:51:26.716Z,1.90
2022-09-21T02:54:17.295Z,1.53
2022-09-21T02:57:05.714Z,2.00
2022-09-21T02:59:53.663Z,2.00
2022-09-21T03:02:42.426Z,1.70
2022-09-21T03:05:30.365Z,1.23
2022-09-21T03:08:18.479Z,1.80
2022-09-21T03:11:06.753Z,1.60
2022-09-21T03:13:55.215Z,1.70
2022-09-21T03:16:43.031Z,1.87
2022-09-21T03:19:30.398Z,1.60
2022-09-21T03:22:18.328Z,1.60
2022-09-21T03:25:06.204Z,1.67
2022-09-21T03:27:54.192Z,1.73
2022-09-21T03:30:41.995Z,1.57
2022-09-21T03:33:29.879Z,1.90
2022-09-21T03:36:17.202Z,1.87
2022-09-21T03:39:04.938Z,1.70
2022-09-21T03:41:53.013Z,1.53
2022-09-21T03:44:41.867Z,2.10
2022-09-21T03:47:29.683Z,1.70
2022-09-21T03:50:17.320Z,1.60
2022-09-21T03:53:06.043Z,1.70
2022-09-21T03:55:53.487Z,1.60
2022-09-21T03:58:41.664Z,1.43
2022-09-21T04:01:28.998Z,1.77
2022-09-21T04:04:17.330Z,1.63
2022-09-21T04:07:04.875Z,2.03
2022-09-21T04:09:53.449Z,1.63
2022-09-21T04:12:44.661Z,2.13
2022-09-21T04:15:32.545Z,2.17
2022-09-21T04:18:20.116Z,1.73
2022-09-21T04:21:08.009Z,1.50
2022-09-21T04:23:55.454Z,1.73
2022-09-21T04:26:43.143Z,1.60
2022-09-21T04:29:30.649Z,1.90
2022-09-21T04:32:18.333Z,1.97
2022-09-21T04:35:06.296Z,2.03
2022-09-21T04:37:56.883Z,1.83
2022-09-21T04:40:44.287Z,2.10
2022-09-21T04:43:32.169Z,1.97
2022-09-21T04:46:21.300Z,1.77
2022-09-21T04:49:09.477Z,1.83
2022-09-21T04:51:57.200Z,1.97
2022-09-21T04:54:45.061Z,1.83
2022-09-21T04:57:32.964Z,1.63
2022-09-21T05:00:20.912Z,2.17
2022-09-21T05:03:08.641Z,3.10
2022-09-21T05:05:57.976Z,2.43
2022-09-21T05:09:04.066Z,2.87
2022-09-21T05:11:53.212Z,2.63
2022-09-21T05:14:41.561Z,2.77
2022-09-21T05:17:29.029Z,3.10
2022-09-21T05:20:16.888Z,2.83
2022-09-21T05:23:04.569Z,2.87
2022-09-21T05:25:52.899Z,2.13
2022-09-21T05:28:40.552Z,2.10
2022-09-21T05:31:39.378Z,2.30
2022-09-21T05:34:42.539Z,2.43
2022-09-21T05:37:42.925Z,2.50
2022-09-21T05:40:30.547Z,2.70
2022-09-21T05:43:18.823Z,2.37
2022-09-21T05:46:12.424Z,2.17
2022-09-21T05:49:01.377Z,3.03
2022-09-21T05:52:02.152Z,2.30
2022-09-21T05:54:52.600Z,2.37
2022-09-21T05:57:39.982Z,2.53
2022-09-21T06:00:30.168Z,2.13
2022-09-21T06:03:27.556Z,2.47
2022-09-21T06:06:15.420Z,2.43
2022-09-21T06:09:02.847Z,2.40
2022-09-21T06:11:50.255Z,2.70
2022-09-21T06:14:38.504Z,2.50
2022-09-21T06:17:27.929Z,2.93
2022-09-21T06:20:15.691Z,2.40
2022-09-21T06:23:04.428Z,2.77
2022-09-21T06:25:58.429Z,2.60
2022-09-21T06:28:46.589Z,2.87
2022-09-21T06:31:34.786Z,2.20
2022-09-21T06:34:22.251Z,2.60
2022-09-21T06:37:09.963Z,2.10
2022-09-21T06:39:57.413Z,2.43
2022-09-21T06:42:44.826Z,2.20
2022-09-21T06:45:32.381Z,2.10
2022-09-21T06:48:19.950Z,2.50
2022-09-21T06:51:07.477Z,2.27
2022-09-21T06:53:56.090Z,2.63
2022-09-21T06:56:43.728Z,2.50
2022-09-21T06:59:31.546Z,2.70
2022-09-21T07:02:19.138Z,2.53
2022-09-21T07:05:07.157Z,2.90
2022-09-21T07:07:59.297Z,2.80
2022-09-21T07:10:47.116Z,2.67
2022-09-21T07:13:35.542Z,2.33
2022-09-21T07:16:23.421Z,2.53
2022-09-21T07:19:11.769Z,2.72
2022-09-21T07:21:59.871Z,2.30
2022-09-21T07:24:47.789Z,2.50
2022-09-21T07:27:35.286Z,2.97
2022-09-21T07:30:23.150Z,2.58
2022-09-21T07:33:10.586Z,2.90
2022-09-21T07:35:58.532Z,2.50
2022-09-21T07:38:45.987Z,2.22
2022-09-21T07:41:33.914Z,2.15
2022-09-21T07:44:22.555Z,2.13
2022-09-21T07:47:10.044Z,1.73
2022-09-21T07:49:57.498Z,1.42
2022-09-21T07:52:45.365Z,1.50
2022-09-21T07:55:32.828Z,1.63
2022-09-21T07:58:38.835Z,1.50
2022-09-21T08:01:27.186Z,1.40
2022-09-21T08:04:15.097Z,1.73
2022-09-21T08:07:02.496Z,1.90
2022-09-21T08:09:50.828Z,1.50
2022-09-21T08:12:38.295Z,1.65
2022-09-21T08:15:47.356Z,1.63
2022-09-21T08:18:36.939Z,1.60
2022-09-21T08:21:24.388Z,1.48
2022-09-21T08:24:12.239Z,1.23
2022-09-21T08:27:00.145Z,1.30
2022-09-21T08:29:48.349Z,1.23
2022-09-21T08:32:50.365Z,1.48
2022-09-21T08:35:38.637Z,0.82
2022-09-21T08:38:26.321Z,1.10
2022-09-21T08:41:26.202Z,1.23
2022-09-21T08:44:13.588Z,1.30
2022-09-21T08:47:17.891Z,1.30
2022-09-21T08:50:06.708Z,1.40
2022-09-21T08:52:58.852Z,1.00
2022-09-21T08:55:46.664Z,0.75
2022-09-21T08:58:34.323Z,1.00
2022-09-21T09:01:21.994Z,0.90
2022-09-21T09:04:12.007Z,1.20
2022-09-21T09:07:10.513Z,0.73
2022-09-21T09:10:14.397Z,1.05
2022-09-21T09:13:17.729Z,1.02
2022-09-21T09:16:11.334Z,1.10
2022-09-21T09:19:01.491Z,0.93
2022-09-21T09:21:49.205Z,1.00
2022-09-21T09:24:50.826Z,0.85
2022-09-21T09:27:41.557Z,0.90
2022-09-21T09:30:31.249Z,1.08
2022-09-21T09:33:23.469Z,0.80
2022-09-21T09:36:12.844Z,0.70
2022-09-21T09:39:06.010Z,0.82
2022-09-21T09:41:53.255Z,0.88
2022-09-21T09:44:46.621Z,0.90
2022-09-21T09:47:52.974Z,0.70
2022-09-21T09:50:41.332Z,0.90
2022-09-21T09:53:28.705Z,0.82
2022-09-21T09:56:16.200Z,0.80
2022-09-21T09:59:08.624Z,0.70
2022-09-21T10:02:01.137Z,0.77
2022-09-21T10:05:04.002Z,0.65
2022-09-21T10:07:51.903Z,0.80
2022-09-21T10:10:42.921Z,0.95
2022-09-21T10:13:32.188Z,0.73
2022-09-21T10:16:21.193Z,0.73
2022-09-21T10:19:15.863Z,0.90
2022-09-21T10:22:05.763Z,1.05
2022-09-21T10:24:55.109Z,0.93
2022-09-21T10:27:44.243Z,0.88
2022-09-21T10:30:32.304Z,1.00
2022-09-21T10:33:21.665Z,1.20
2022-09-21T10:36:22.478Z,1.00
2022-09-21T10:39:12.896Z,0.60
2022-09-21T10:42:05.973Z,0.80
2022-09-21T10:45:08.572Z,0.70
2022-09-21T10:47:57.920Z,0.90
2022-09-21T10:50:46.647Z,0.50
2022-09-21T10:53:35.218Z,0.70
2022-09-21T10:56:22.759Z,1.00
2022-09-21T10:59:24.509Z,0.80
2022-09-21T11:02:27.923Z,0.88
2022-09-21T11:05:18.514Z,0.77
2022-09-21T11:08:09.228Z,0.70
2022-09-21T11:11:09.009Z,0.75
2022-09-21T11:14:15.891Z,0.70
2022-09-21T11:17:12.545Z,0.77
2022-09-21T11:20:06.202Z,1.08
2022-09-21T11:23:12.377Z,0.82
2022-09-21T11:26:05.273Z,0.98
2022-09-21T11:29:06.768Z,0.77
2022-09-21T11:32:05.868Z,0.90
2022-09-21T11:35:13.907Z,1.10
2022-09-21T11:38:19.104Z,0.73
2022-09-21T11:41:18.875Z,0.80
2022-09-21T11:44:16.998Z,0.80
2022-09-21T11:47:18.359Z,0.80
2022-09-21T11:50:32.130Z,0.77
2022-09-21T11:53:53.668Z,0.95
2022-09-21T11:56:50.297Z,0.73
2022-09-21T11:59:43.895Z,1.08
2022-09-21T12:02:55.908Z,0.90
2022-09-21T12:05:46.420Z,0.60
2022-09-21T12:08:36.782Z,0.80
2022-09-21T12:11:32.650Z,0.82
2022-09-21T12:14:23.473Z,0.63
2022-09-21T12:17:34.497Z,0.68
2022-09-21T12:20:31.952Z,0.60
2022-09-21T12:23:24.402Z,0.73
2022-09-21T12:26:15.300Z,0.80
2022-09-21T12:29:06.226Z,0.65
2022-09-21T12:32:00.835Z,0.73
2022-09-21T12:34:52.922Z,1.10
2022-09-21T12:37:42.872Z,0.80
2022-09-21T12:40:30.176Z,0.70
2022-09-21T12:43:36.510Z,1.90
2022-09-21T12:46:23.764Z,0.63
2022-09-21T12:49:14.304Z,0.77
2022-09-21T12:52:06.718Z,0.90
2022-09-21T12:55:02.577Z,0.50
2022-09-21T12:58:15.081Z,0.40
2022-09-21T13:01:16.350Z,0.68
2022-09-21T13:04:16.357Z,0.63
2022-09-21T13:07:03.619Z,0.63
2022-09-21T13:09:52.080Z,0.50
2022-09-21T13:12:40.956Z,0.65
2022-09-21T13:15:31.487Z,0.73
2022-09-21T13:18:25.597Z,0.75
2022-09-21T13:21:17.732Z,0.77
2022-09-21T13:24:09.160Z,0.60
2022-09-21T13:27:00.032Z,0.60
2022-09-21T13:30:07.426Z,0.82
2022-09-21T13:32:54.796Z,0.50
2022-09-21T13:35:48.509Z,0.70
2022-09-21T13:38:42.137Z,0.50
2022-09-21T13:42:02.385Z,0.50
2022-09-21T13:44:42.587Z,0.70
2022-09-21T13:47:32.879Z,0.65
2022-09-21T13:50:26.438Z,0.65
2022-09-21T13:53:28.465Z,0.88
2022-09-21T13:56:18.165Z,0.88
2022-09-21T13:59:06.980Z,0.60
2022-09-21T14:01:57.350Z,1.10
2022-09-21T14:04:48.702Z,0.73
2022-09-21T14:07:36.715Z,0.68
2022-09-21T14:10:24.728Z,0.73
2022-09-21T14:13:25.258Z,0.90
2022-09-21T14:16:34.144Z,1.00
2022-09-21T14:19:23.454Z,0.82
2022-09-21T14:22:10.753Z,0.77
2022-09-21T14:25:25.615Z,0.70
2022-09-21T14:28:15.115Z,0.90
2022-09-21T14:31:08.414Z,0.77
2022-09-21T14:33:59.976Z,0.70
2022-09-21T14:36:50.650Z,0.63
2022-09-21T14:39:43.871Z,0.50
2022-09-21T14:42:36.440Z,0.50
2022-09-21T14:45:50.428Z,0.88
2022-09-21T14:48:44.688Z,0.45
2022-09-21T14:51:42.859Z,0.70
2022-09-21T14:54:49.231Z,0.50
2022-09-21T14:57:52.474Z,0.60
2022-09-21T15:00:42.797Z,1.05
2022-09-21T15:03:39.226Z,0.57
2022-09-21T15:07:01.392Z,0.63
2022-09-21T15:10:14.749Z,0.70
2022-09-21T15:13:08.270Z,0.68
2022-09-21T15:16:18.157Z,0.75
2022-09-21T15:19:20.979Z,0.63
2022-09-21T15:22:22.704Z,1.00
2022-09-21T15:25:12.903Z,0.50
2022-09-21T15:28:00.785Z,0.55
2022-09-21T15:30:48.630Z,0.70
2022-09-21T15:33:42.172Z,0.70
2022-09-21T15:36:31.068Z,0.65
2022-09-21T15:39:29.006Z,0.80
2022-09-21T15:42:20.106Z,0.90
2022-09-21T15:45:15.028Z,0.50
2022-09-21T15:59:32.387Z,0.75
2022-09-21T16:02:22.242Z,0.88
2022-09-21T16:05:14.621Z,0.60
2022-09-21T16:08:06.357Z,0.80
2022-09-21T16:10:55.250Z,0.90
2022-09-21T16:14:02.313Z,0.80
2022-09-21T16:17:06.646Z,0.77
2022-09-21T16:19:54.079Z,1.00
2022-09-21T16:22:43.907Z,0.98
2022-09-21T16:25:34.608Z,0.80
2022-09-21T16:28:22.917Z,1.20
2022-09-21T16:31:30.812Z,1.00
2022-09-21T16:34:23.330Z,0.88
2022-09-21T16:37:26.170Z,0.95
2022-09-21T16:40:14.236Z,0.77
2022-09-21T16:43:03.942Z,1.02
2022-09-21T16:45:51.453Z,1.10
2022-09-21T16:48:39.375Z,0.80
2022-09-21T16:51:28.142Z,1.00
2022-09-21T16:54:16.842Z,1.17
2022-09-21T16:57:06.163Z,1.30
2022-09-21T16:59:53.632Z,1.10
2022-09-21T17:02:45.207Z,0.95
2022-09-21T17:05:34.100Z,1.02
2022-09-21T17:08:21.846Z,1.10
2022-09-21T17:11:09.950Z,1.38
2022-09-21T17:14:01.371Z,1.10
2022-09-21T17:16:50.866Z,1.30
2022-09-21T17:19:39.896Z,1.30
2022-09-21T17:22:29.007Z,1.05
2022-09-21T17:25:16.723Z,1.20
2022-09-21T17:28:12.641Z,1.30
2022-09-21T17:31:01.176Z,1.20
2022-09-21T17:33:50.849Z,1.50
2022-09-21T17:36:38.848Z,1.20
2022-09-21T17:39:27.233Z,1.43
2022-09-21T17:42:23.425Z,1.37
2022-09-21T17:45:14.164Z,1.60
2022-09-21T17:48:02.219Z,1.47
2022-09-21T17:50:51.161Z,3.70
2022-09-21T17:53:40.720Z,1.73
2022-09-21T17:56:39.688Z,1.90
2022-09-21T17:59:34.494Z,1.60
2022-09-21T18:02:25.805Z,1.93
2022-09-21T18:05:23.536Z,1.50
2022-09-21T18:08:11.113Z,1.60
2022-09-21T18:11:22.072Z,1.50
2022-09-21T18:14:21.397Z,1.33
2022-09-21T18:17:12.180Z,1.80
2022-09-21T18:20:18.395Z,1.50
2022-09-21T18:23:24.685Z,1.40
2022-09-21T18:26:18.696Z,1.43
2022-09-21T18:29:28.578Z,1.40
2022-09-21T18:32:26.714Z,1.70
2022-09-21T18:35:19.167Z,1.90
2022-09-21T18:38:09.811Z,1.87
2022-09-21T18:41:06.559Z,1.53
2022-09-21T18:44:04.605Z,2.20
2022-09-21T18:46:56.046Z,1.87
2022-09-21T18:49:49.696Z,1.80
2022-09-21T18:52:49.555Z,1.50
2022-09-21T18:55:37.916Z,1.90
2022-09-21T18:58:25.482Z,1.93
2022-09-21T19:01:13.803Z,1.90
2022-09-21T19:04:01.804Z,1.90
2022-09-21T19:06:55.520Z,2.00
2022-09-21T19:09:51.938Z,2.20
2022-09-21T19:13:02.108Z,2.17
2022-09-21T19:16:00.431Z,1.80
2022-09-21T19:19:03.129Z,1.70
2022-09-21T19:22:01.355Z,2.00
2022-09-21T19:24:59.071Z,2.20
2022-09-21T19:27:59.345Z,1.87
2022-09-21T19:30:49.468Z,2.10
2022-09-21T19:33:52.860Z,2.10
2022-09-21T19:36:40.298Z,1.83
2022-09-21T19:39:28.130Z,1.83
2022-09-21T19:42:30.383Z,2.50
2022-09-21T19:45:30.116Z,2.13
2022-09-21T19:48:19.065Z,2.10
2022-09-21T19:51:07.239Z,1.87
2022-09-21T19:54:17.450Z,2.40
2022-09-21T19:57:37.736Z,2.13
2022-09-21T20:00:25.253Z,1.90
2022-09-21T20:03:19.600Z,1.90
2022-09-21T20:06:11.785Z,3.07
2022-09-21T20:09:03.585Z,2.47
2022-09-21T20:12:03.720Z,2.40
2022-09-21T20:14:54.448Z,2.20
2022-09-21T20:18:02.135Z,2.20
2022-09-21T20:20:49.726Z,2.33
2022-09-21T20:23:37.115Z,2.57
2022-09-21T20:26:25.572Z,2.60
2022-09-21T20:29:13.652Z,2.40
2022-09-21T20:32:01.226Z,2.47
2022-09-21T20:34:50.663Z,2.60
2022-09-21T20:37:38.705Z,3.20
2022-09-21T20:40:29.314Z,2.43
2022-09-21T20:43:16.713Z,2.90
2022-09-21T20:46:04.690Z,2.50
2022-09-21T20:49:04.763Z,2.47
2022-09-21T20:51:52.608Z,2.23
2022-09-21T20:54:41.887Z,2.70
2022-09-21T20:57:31.675Z,2.43
2022-09-21T21:00:19.805Z,2.40
2022-09-21T21:03:07.705Z,2.10
2022-09-21T21:05:55.150Z,2.33
2022-09-21T21:08:43.621Z,2.33
2022-09-21T21:11:31.262Z,2.13
2022-09-21T21:14:19.079Z,2.07
2022-09-21T21:17:07.530Z,2.70
2022-09-21T21:19:54.929Z,2.40
2022-09-21T21:22:42.505Z,2.30
2022-09-21T21:25:29.931Z,2.37
2022-09-21T21:28:17.446Z,2.50
2022-09-21T21:31:05.381Z,2.40
2022-09-21T21:33:56.069Z,2.33
2022-09-21T21:36:44.102Z,2.67
2022-09-21T21:39:32.073Z,2.37
2022-09-21T21:42:21.020Z,2.70
2022-09-21T21:45:10.306Z,2.60
2022-09-21T21:47:58.440Z,2.30
2022-09-21T21:50:45.924Z,2.40
2022-09-21T21:53:37.543Z,2.53
2022-09-21T21:56:25.409Z,2.50
2022-09-21T21:59:17.638Z,2.50
2022-09-21T22:02:05.396Z,2.73
2022-09-21T22:04:52.801Z,2.90
2022-09-21T22:07:41.290Z,2.67
2022-09-21T22:10:29.091Z,2.33
2022-09-21T22:13:18.276Z,2.87
2022-09-21T22:16:12.931Z,3.10
2022-09-21T22:19:03.502Z,3.00
2022-09-21T22:21:54.467Z,2.80
2022-09-21T22:24:42.479Z,2.80
2022-09-21T22:27:30.285Z,2.70
2022-09-21T22:30:17.532Z,2.93
2022-09-21T22:33:04.840Z,2.90
2022-09-21T22:35:52.653Z,2.90
2022-09-21T22:38:43.248Z,3.10
2022-09-21T22:41:31.787Z,2.50
2022-09-21T22:44:19.493Z,2.77
2022-09-21T22:47:06.898Z,3.17
2022-09-21T22:49:54.690Z,3.30
2022-09-21T22:52:41.867Z,2.77
2022-09-21T22:55:29.511Z,3.27
2022-09-21T22:58:16.905Z,2.40
2022-09-21T23:01:09.292Z,2.43
2022-09-21T23:04:00.958Z,2.80
2022-09-21T23:06:50.041Z,2.57
2022-09-21T23:09:37.881Z,3.00
2022-09-21T23:12:25.270Z,3.00
2022-09-21T23:15:13.082Z,3.30
2022-09-21T23:18:00.457Z,3.40
2022-09-21T23:20:57.044Z,3.10
2022-09-21T23:23:44.866Z,3.13
2022-09-21T23:26:33.502Z,2.80
2022-09-21T23:29:20.730Z,3.53
2022-09-21T23:32:08.659Z,2.73
2022-09-21T23:34:55.981Z,3.03
2022-09-21T23:37:43.791Z,3.47
2022-09-21T23:40:31.210Z,3.10
2022-09-21T23:43:19.038Z,3.27
2022-09-21T23:46:07.001Z,3.30
2022-09-21T23:48:54.835Z,3.03
2022-09-21T23:51:42.253Z,2.90
2022-09-21T23:54:29.867Z,2.63
2022-09-21T23:57:17.343Z,3.20
